createdAt,value
2018-12-31T00:00:46.150Z,52.10
2018-12-31T00:03:15.519Z,52.50
2018-12-31T00:05:44.882Z,52.90
2018-12-31T00:08:14.256Z,52.00
2018-12-31T00:10:43.628Z,52.60
2018-12-31T00:13:13.007Z,53.10
2018-12-31T00:15:42.497Z,53.20
2018-12-31T00:18:11.902Z,52.80
2018-12-31T00:20:41.291Z,53.00
2018-12-31T00:23:10.786Z,53.60
2018-12-31T00:25:40.199Z,54.80
2018-12-31T00:28:09.533Z,55.10
2018-12-31T00:30:39.971Z,54.30
2018-12-31T00:33:09.419Z,53.60
2018-12-31T00:35:38.837Z,54.20
2018-12-31T00:38:08.258Z,54.30
2018-12-31T00:40:37.613Z,54.50
2018-12-31T00:43:07.011Z,54.50
2018-12-31T00:45:36.589Z,54.60
2018-12-31T00:48:06.050Z,54.50
2018-12-31T00:50:35.487Z,53.70
2018-12-31T00:53:04.957Z,53.80
2018-12-31T00:55:34.984Z,53.80
2018-12-31T00:58:04.635Z,54.00
2018-12-31T01:00:34.119Z,54.10
2018-12-31T01:03:03.518Z,54.00
2018-12-31T01:05:32.947Z,53.40
2018-12-31T01:08:02.442Z,53.90
2018-12-31T01:10:31.894Z,54.20
2018-12-31T01:13:01.356Z,54.30
2018-12-31T01:15:30.852Z,54.20
2018-12-31T01:18:00.190Z,54.00
2018-12-31T01:20:29.569Z,53.80
2018-12-31T01:22:58.954Z,53.10
2018-12-31T01:25:28.294Z,52.80
2018-12-31T01:27:57.669Z,53.00
2018-12-31T01:30:27.156Z,53.50
2018-12-31T01:32:56.533Z,53.00
2018-12-31T01:35:25.910Z,53.20
2018-12-31T01:37:55.365Z,53.60
2018-12-31T01:40:24.743Z,53.60
2018-12-31T01:42:54.192Z,53.70
2018-12-31T01:45:23.664Z,53.90
2018-12-31T01:47:53.044Z,53.90
2018-12-31T01:50:22.473Z,53.40
2018-12-31T01:52:51.976Z,53.60
2018-12-31T01:55:21.405Z,53.50
2018-12-31T01:57:50.757Z,53.30
2018-12-31T02:00:20.173Z,53.50
2018-12-31T02:02:49.551Z,53.60
2018-12-31T02:05:18.964Z,53.40
2018-12-31T02:07:48.442Z,53.70
2018-12-31T02:10:17.862Z,53.90
2018-12-31T02:12:47.267Z,53.90
2018-12-31T02:15:16.721Z,53.90
2018-12-31T02:17:46.073Z,54.30
2018-12-31T02:20:15.480Z,53.80
2018-12-31T02:22:44.909Z,53.90
2018-12-31T02:25:14.368Z,54.20
2018-12-31T02:27:43.783Z,53.70
2018-12-31T02:30:13.219Z,53.90
2018-12-31T02:32:43.566Z,53.70
2018-12-31T02:35:12.978Z,53.90
2018-12-31T02:37:42.381Z,54.10
2018-12-31T02:40:11.849Z,54.10
2018-12-31T02:42:41.228Z,54.00
2018-12-31T02:45:10.711Z,53.10
2018-12-31T02:47:40.163Z,53.00
2018-12-31T02:50:09.571Z,52.50
2018-12-31T02:52:38.964Z,52.80
2018-12-31T02:55:08.346Z,52.30
2018-12-31T02:57:37.768Z,51.00
2018-12-31T03:00:07.527Z,50.90
2018-12-31T03:02:36.885Z,50.30
2018-12-31T03:05:06.454Z,51.00
2018-12-31T03:07:35.968Z,51.70
2018-12-31T03:10:05.613Z,51.60
2018-12-31T03:12:34.973Z,52.30
2018-12-31T03:15:04.425Z,52.70
2018-12-31T03:17:33.842Z,53.10
2018-12-31T03:20:03.271Z,53.20
2018-12-31T03:22:32.737Z,53.20
2018-12-31T03:25:02.094Z,53.30
2018-12-31T03:27:31.487Z,53.30
2018-12-31T03:30:00.958Z,53.50
2018-12-31T03:32:30.380Z,53.60
2018-12-31T03:34:59.792Z,53.40
2018-12-31T03:37:29.234Z,53.20
2018-12-31T03:39:58.620Z,53.20
2018-12-31T03:42:28.066Z,52.30
2018-12-31T03:44:57.445Z,51.10
2018-12-31T03:47:26.828Z,50.90
2018-12-31T03:49:56.640Z,51.40
2018-12-31T03:52:26.016Z,52.00
2018-12-31T03:54:55.338Z,51.70
2018-12-31T03:57:24.734Z,52.00
2018-12-31T03:59:54.110Z,52.40
2018-12-31T04:02:23.473Z,50.20
2018-12-31T04:04:52.832Z,50.30
2018-12-31T04:07:22.297Z,50.40
2018-12-31T04:09:51.701Z,51.40
2018-12-31T04:12:21.042Z,53.10
2018-12-31T04:14:50.462Z,53.50
2018-12-31T04:17:19.893Z,53.40
2018-12-31T04:19:49.225Z,53.60
2018-12-31T04:22:18.636Z,53.70
2018-12-31T04:24:47.952Z,53.80
2018-12-31T04:27:17.279Z,53.60
2018-12-31T04:29:46.784Z,53.60
2018-12-31T04:32:16.159Z,53.60
2018-12-31T04:34:45.527Z,53.80
2018-12-31T04:37:14.945Z,53.90
2018-12-31T04:39:44.298Z,54.00
2018-12-31T04:42:13.675Z,54.10
2018-12-31T04:44:43.178Z,54.00
2018-12-31T04:47:12.562Z,53.80
2018-12-31T04:49:41.877Z,53.50
2018-12-31T04:52:11.277Z,53.20
2018-12-31T04:54:40.722Z,53.30
2018-12-31T04:57:10.163Z,53.20
2018-12-31T04:59:39.649Z,53.50
2018-12-31T05:02:09.051Z,53.50
2018-12-31T05:04:38.453Z,53.60
2018-12-31T05:07:07.828Z,53.50
2018-12-31T05:09:37.155Z,53.30
2018-12-31T05:12:06.592Z,53.40
2018-12-31T05:14:35.993Z,53.30
2018-12-31T05:17:05.357Z,53.40
2018-12-31T05:19:34.708Z,53.30
2018-12-31T05:22:04.135Z,53.30
2018-12-31T05:24:33.528Z,53.20
2018-12-31T05:27:02.974Z,53.50
2018-12-31T05:29:32.456Z,53.30
2018-12-31T05:32:01.820Z,53.50
2018-12-31T05:34:31.194Z,53.90
2018-12-31T05:37:00.631Z,53.80
2018-12-31T05:39:30.055Z,53.90
2018-12-31T05:41:59.499Z,54.10
2018-12-31T05:44:28.966Z,54.40
2018-12-31T05:46:58.299Z,54.40
2018-12-31T05:49:27.694Z,54.40
2018-12-31T05:51:57.094Z,55.10
2018-12-31T05:54:26.452Z,54.50
2018-12-31T05:56:55.883Z,54.70
2018-12-31T05:59:25.377Z,54.60
2018-12-31T06:01:54.769Z,54.50
2018-12-31T06:04:24.188Z,54.30
2018-12-31T06:06:53.606Z,54.10
2018-12-31T06:09:23.056Z,54.50
2018-12-31T06:11:52.455Z,55.00
2018-12-31T06:14:21.887Z,55.60
2018-12-31T06:16:51.309Z,55.90
2018-12-31T06:19:20.751Z,56.00
2018-12-31T06:21:50.247Z,56.10
2018-12-31T06:24:19.654Z,56.50
2018-12-31T06:26:49.033Z,56.60
2018-12-31T06:29:18.539Z,56.50
2018-12-31T06:31:47.977Z,56.20
2018-12-31T06:34:17.403Z,55.90
2018-12-31T06:36:46.845Z,56.20
2018-12-31T06:39:16.193Z,56.20
2018-12-31T06:41:45.567Z,56.40
2018-12-31T06:44:14.950Z,56.40
2018-12-31T06:46:44.374Z,56.40
2018-12-31T06:49:13.746Z,56.70
2018-12-31T06:51:43.114Z,57.30
2018-12-31T06:54:12.439Z,56.90
2018-12-31T06:56:41.747Z,56.60
2018-12-31T06:59:11.180Z,56.30
2018-12-31T07:01:40.527Z,56.60
2018-12-31T07:04:09.964Z,56.80
2018-12-31T07:06:39.354Z,56.80
2018-12-31T07:09:08.725Z,56.40
2018-12-31T07:11:38.060Z,56.40
2018-12-31T07:14:07.468Z,56.40
2018-12-31T07:16:36.887Z,56.90
2018-12-31T07:19:06.237Z,56.40
2018-12-31T07:21:35.827Z,56.60
2018-12-31T07:24:05.261Z,56.80
2018-12-31T07:26:34.706Z,56.70
2018-12-31T07:29:04.138Z,56.60
2018-12-31T07:31:33.505Z,56.50
2018-12-31T07:34:02.865Z,56.40
2018-12-31T07:36:32.348Z,56.50
2018-12-31T07:39:02.797Z,56.50
2018-12-31T07:41:32.223Z,56.40
2018-12-31T07:44:01.709Z,56.40
2018-12-31T07:46:31.051Z,56.30
2018-12-31T07:49:00.491Z,56.30
2018-12-31T07:51:29.996Z,56.40
2018-12-31T07:53:59.439Z,56.40
2018-12-31T07:56:28.894Z,56.50
2018-12-31T07:58:58.361Z,56.50
2018-12-31T08:01:27.792Z,56.80
2018-12-31T08:03:57.163Z,57.00
2018-12-31T08:06:26.666Z,57.00
2018-12-31T08:08:56.099Z,57.00
2018-12-31T08:11:25.437Z,57.00
2018-12-31T08:13:54.931Z,57.00
2018-12-31T08:16:24.345Z,56.70
2018-12-31T08:18:53.745Z,56.40
2018-12-31T08:21:23.213Z,56.60
2018-12-31T08:23:52.923Z,56.90
2018-12-31T08:26:22.341Z,57.00
2018-12-31T08:28:51.993Z,57.30
2018-12-31T08:31:21.351Z,57.60
2018-12-31T08:33:50.773Z,57.90
2018-12-31T08:36:21.813Z,57.80
2018-12-31T08:38:51.891Z,57.90
2018-12-31T08:41:22.334Z,57.80
2018-12-31T08:43:51.784Z,57.50
2018-12-31T08:46:21.153Z,57.70
2018-12-31T08:48:50.575Z,57.70
2018-12-31T08:51:20.053Z,57.70
2018-12-31T08:53:49.413Z,57.80
2018-12-31T08:56:18.848Z,57.90
2018-12-31T08:58:48.366Z,57.70
2018-12-31T09:01:17.732Z,57.70
2018-12-31T09:03:47.174Z,57.90
2018-12-31T09:06:16.705Z,58.00
2018-12-31T09:08:46.161Z,58.10
2018-12-31T09:11:15.557Z,58.20
2018-12-31T09:13:45.020Z,58.50
2018-12-31T09:16:14.459Z,58.60
2018-12-31T09:18:43.872Z,58.50
2018-12-31T09:21:13.274Z,58.50
2018-12-31T09:23:42.623Z,58.60
2018-12-31T09:26:12.069Z,58.40
2018-12-31T09:28:41.631Z,57.80
2018-12-31T09:31:11.078Z,57.60
2018-12-31T09:33:40.442Z,57.80
2018-12-31T09:36:09.853Z,57.50
2018-12-31T09:38:39.196Z,57.50
2018-12-31T09:41:08.561Z,58.70
2018-12-31T09:43:38.103Z,59.30
2018-12-31T09:46:07.534Z,59.50
2018-12-31T09:48:37.004Z,58.70
2018-12-31T09:51:06.495Z,58.30
2018-12-31T09:53:35.878Z,59.20
2018-12-31T09:56:05.272Z,59.00
2018-12-31T09:58:36.343Z,59.20
2018-12-31T10:01:05.711Z,59.10
2018-12-31T10:03:35.061Z,59.10
2018-12-31T10:06:04.458Z,59.40
2018-12-31T10:08:33.814Z,59.20
2018-12-31T10:11:03.198Z,59.00
2018-12-31T10:13:32.921Z,59.00
2018-12-31T10:16:02.357Z,58.70
2018-12-31T10:18:31.773Z,58.10
2018-12-31T10:21:01.174Z,55.40
2018-12-31T10:23:30.470Z,54.60
2018-12-31T10:25:59.813Z,55.20
2018-12-31T10:28:29.311Z,55.80
2018-12-31T10:30:58.780Z,55.30
2018-12-31T10:33:28.501Z,55.70
2018-12-31T10:35:58.006Z,56.80
2018-12-31T10:38:27.357Z,58.00
2018-12-31T10:40:56.678Z,59.30
2018-12-31T10:43:26.142Z,59.80
2018-12-31T10:45:55.640Z,59.40
2018-12-31T10:48:25.038Z,59.10
2018-12-31T10:50:54.434Z,60.80
2018-12-31T10:53:23.929Z,62.20
2018-12-31T10:55:53.278Z,61.90
2018-12-31T10:58:22.783Z,61.40
2018-12-31T11:00:52.207Z,60.20
2018-12-31T11:03:21.785Z,59.10
2018-12-31T11:05:51.154Z,59.00
2018-12-31T11:08:20.510Z,59.80
2018-12-31T11:10:49.880Z,60.00
2018-12-31T11:13:19.373Z,61.10
2018-12-31T11:15:48.787Z,61.50
2018-12-31T11:18:18.157Z,60.90
2018-12-31T11:20:47.674Z,61.10
2018-12-31T11:23:17.032Z,62.10
2018-12-31T11:25:46.451Z,61.20
2018-12-31T11:28:15.894Z,59.60
2018-12-31T11:30:45.261Z,58.70
2018-12-31T11:33:14.653Z,57.40
2018-12-31T11:35:44.153Z,57.20
2018-12-31T11:38:13.639Z,59.30
2018-12-31T11:40:43.101Z,61.20
2018-12-31T11:43:12.558Z,60.40
2018-12-31T11:45:43.192Z,61.60
2018-12-31T11:48:12.607Z,60.40
2018-12-31T11:50:42.011Z,59.00
2018-12-31T11:53:11.343Z,59.50
2018-12-31T11:55:40.670Z,59.90
2018-12-31T11:58:10.091Z,59.40
2018-12-31T12:00:39.457Z,60.60
2018-12-31T12:03:08.948Z,61.70
2018-12-31T12:05:38.423Z,62.70
2018-12-31T12:08:07.845Z,64.50
2018-12-31T12:10:37.289Z,65.00
2018-12-31T12:13:06.689Z,65.60
2018-12-31T12:15:36.094Z,66.40
2018-12-31T12:18:05.510Z,66.60
2018-12-31T12:20:34.940Z,67.50
2018-12-31T12:23:04.399Z,68.40
2018-12-31T12:25:33.827Z,69.60
2018-12-31T12:28:05.147Z,71.40
2018-12-31T12:30:34.402Z,71.40
2018-12-31T12:33:03.773Z,72.10
2018-12-31T12:35:33.163Z,71.80
2018-12-31T12:38:02.584Z,70.60
2018-12-31T12:40:31.961Z,69.20
2018-12-31T12:43:04.409Z,68.30
2018-12-31T12:45:33.731Z,68.40
2018-12-31T12:48:03.156Z,68.20
2018-12-31T12:50:32.607Z,67.70
2018-12-31T12:53:02.113Z,69.90
2018-12-31T12:55:31.531Z,70.40
2018-12-31T12:58:01.041Z,70.00
2018-12-31T13:00:30.420Z,68.90
2018-12-31T13:02:59.824Z,65.90
2018-12-31T13:05:29.351Z,66.60
2018-12-31T13:07:58.792Z,67.30
2018-12-31T13:10:28.248Z,66.20
2018-12-31T13:12:57.761Z,66.20
2018-12-31T13:15:27.207Z,65.70
2018-12-31T13:17:56.712Z,65.30
2018-12-31T13:20:26.321Z,65.00
2018-12-31T13:22:55.750Z,64.60
2018-12-31T13:25:25.170Z,64.40
2018-12-31T13:27:55.231Z,62.10
2018-12-31T13:30:24.664Z,62.10
2018-12-31T13:32:54.102Z,64.20
2018-12-31T13:35:23.634Z,65.30
2018-12-31T13:37:53.035Z,64.40
2018-12-31T13:40:22.917Z,64.40
2018-12-31T13:42:52.364Z,64.90
2018-12-31T13:45:21.820Z,64.60
2018-12-31T13:47:51.270Z,63.00
2018-12-31T13:50:20.807Z,63.10
2018-12-31T13:52:50.241Z,63.60
2018-12-31T13:55:19.630Z,63.50
2018-12-31T13:57:49.075Z,63.10
2018-12-31T14:00:18.531Z,63.30
2018-12-31T14:02:47.995Z,62.80
2018-12-31T14:05:17.526Z,63.50
2018-12-31T14:07:46.898Z,63.40
2018-12-31T14:10:16.262Z,63.00
2018-12-31T14:12:45.743Z,63.70
2018-12-31T14:15:15.161Z,64.10
2018-12-31T14:17:44.509Z,63.90
2018-12-31T14:20:13.987Z,63.70
2018-12-31T14:22:43.364Z,65.10
2018-12-31T14:25:12.820Z,66.00
2018-12-31T14:27:42.677Z,66.90
2018-12-31T14:30:12.104Z,66.50
2018-12-31T14:32:41.528Z,66.90
2018-12-31T14:35:11.010Z,67.70
2018-12-31T14:37:40.411Z,68.10
2018-12-31T14:40:10.154Z,69.00
2018-12-31T14:42:39.637Z,68.90
2018-12-31T14:45:09.118Z,69.00
2018-12-31T14:47:38.593Z,69.40
2018-12-31T14:50:08.175Z,69.40
2018-12-31T14:52:37.624Z,69.60
2018-12-31T14:55:07.073Z,70.10
2018-12-31T14:57:36.573Z,70.40
2018-12-31T15:00:08.927Z,71.20
2018-12-31T15:02:38.291Z,70.70
2018-12-31T15:05:07.690Z,71.20
2018-12-31T15:07:37.049Z,71.70
2018-12-31T15:10:07.304Z,71.90
2018-12-31T15:12:36.768Z,72.20
2018-12-31T15:15:07.357Z,72.40
2018-12-31T15:17:36.791Z,72.80
2018-12-31T15:20:07.709Z,73.00
2018-12-31T15:22:37.149Z,73.60
2018-12-31T15:25:06.559Z,73.90
2018-12-31T15:27:35.995Z,73.80
2018-12-31T15:30:06.694Z,74.50
2018-12-31T15:32:36.129Z,74.30
2018-12-31T15:35:06.161Z,75.90
2018-12-31T15:37:35.587Z,76.00
2018-12-31T15:40:06.684Z,76.70
2018-12-31T15:42:36.481Z,77.20
2018-12-31T15:45:06.883Z,77.30
2018-12-31T15:47:36.318Z,78.00
2018-12-31T15:50:08.197Z,77.30
2018-12-31T15:52:37.653Z,77.20
2018-12-31T15:55:07.009Z,77.90
2018-12-31T15:57:36.493Z,78.70
2018-12-31T16:00:07.832Z,78.70
2018-12-31T16:02:37.938Z,78.60
2018-12-31T16:05:08.239Z,79.30
2018-12-31T16:07:45.412Z,79.50
2018-12-31T16:10:08.774Z,79.10
2018-12-31T16:12:38.244Z,79.70
2018-12-31T16:15:09.248Z,79.50
2018-12-31T16:17:38.679Z,80.20
2018-12-31T16:20:08.484Z,80.60
2018-12-31T16:22:37.917Z,80.90
2018-12-31T16:25:07.665Z,81.40
2018-12-31T16:27:37.170Z,81.80
2018-12-31T16:30:06.800Z,82.90
2018-12-31T16:32:36.567Z,82.60
2018-12-31T16:35:06.082Z,82.60
2018-12-31T16:37:36.002Z,82.10
2018-12-31T16:40:05.786Z,82.00
2018-12-31T16:42:35.265Z,83.70
2018-12-31T16:45:05.043Z,82.60
2018-12-31T16:47:34.454Z,83.10
2018-12-31T16:50:06.910Z,82.70
2018-12-31T16:52:36.356Z,82.20
2018-12-31T16:55:05.891Z,82.20
2018-12-31T16:57:35.373Z,82.00
2018-12-31T17:00:04.952Z,82.00
2018-12-31T17:02:34.374Z,82.20
2018-12-31T17:05:03.872Z,82.30
2018-12-31T17:07:33.304Z,82.30
2018-12-31T17:10:02.781Z,82.20
2018-12-31T17:12:32.267Z,82.10
2018-12-31T17:15:01.748Z,82.00
2018-12-31T17:17:31.150Z,82.30
2018-12-31T17:20:00.651Z,82.30
2018-12-31T17:22:30.067Z,82.30
2018-12-31T17:24:59.505Z,82.50
2018-12-31T17:27:29.013Z,83.40
2018-12-31T17:29:58.460Z,83.60
2018-12-31T17:32:27.909Z,83.90
2018-12-31T17:34:57.428Z,84.40
2018-12-31T17:37:26.963Z,84.20
2018-12-31T17:39:56.399Z,84.10
2018-12-31T17:42:25.893Z,83.80
2018-12-31T17:44:55.325Z,83.50
2018-12-31T17:47:24.799Z,83.40
2018-12-31T17:49:54.278Z,83.40
2018-12-31T17:52:24.936Z,83.40
2018-12-31T17:54:54.382Z,83.20
2018-12-31T17:57:23.872Z,83.10
2018-12-31T17:59:53.307Z,82.90
2018-12-31T18:02:22.755Z,82.50
2018-12-31T18:04:52.307Z,82.30
2018-12-31T18:07:21.717Z,82.20
2018-12-31T18:09:51.157Z,82.00
2018-12-31T18:12:20.653Z,81.70
2018-12-31T18:14:50.078Z,82.10
2018-12-31T18:17:19.518Z,81.40
2018-12-31T18:19:49.015Z,81.40
2018-12-31T18:22:18.457Z,81.20
2018-12-31T18:24:47.884Z,81.30
2018-12-31T18:27:19.821Z,81.00
2018-12-31T18:29:48.943Z,80.40
2018-12-31T18:32:18.395Z,79.20
2018-12-31T18:34:47.843Z,79.30
2018-12-31T18:37:17.277Z,79.10
2018-12-31T18:39:49.254Z,79.40
2018-12-31T18:42:18.681Z,78.40
2018-12-31T18:44:48.736Z,78.10
2018-12-31T18:47:18.172Z,77.90
2018-12-31T18:49:47.666Z,77.80
2018-12-31T18:52:17.099Z,77.70
2018-12-31T18:54:47.528Z,77.90
2018-12-31T18:57:17.008Z,77.90
2018-12-31T18:59:46.513Z,78.00
2018-12-31T19:02:15.971Z,78.30
2018-12-31T19:04:45.445Z,78.40
2018-12-31T19:07:14.888Z,78.40
2018-12-31T19:09:44.316Z,78.40
2018-12-31T19:12:13.821Z,79.30
2018-12-31T19:14:43.252Z,78.50
2018-12-31T19:17:12.707Z,78.40
2018-12-31T19:19:42.187Z,78.30
2018-12-31T19:22:11.621Z,78.30
2018-12-31T19:24:41.056Z,78.20
2018-12-31T19:27:10.559Z,78.20
2018-12-31T19:29:39.996Z,78.00
2018-12-31T19:32:09.419Z,78.00
2018-12-31T19:34:38.904Z,77.90
2018-12-31T19:37:08.336Z,78.50
2018-12-31T19:39:37.750Z,77.90
2018-12-31T19:42:07.244Z,78.00
2018-12-31T19:44:36.605Z,77.90
2018-12-31T19:47:06.019Z,78.10
2018-12-31T19:49:35.543Z,78.10
2018-12-31T19:52:04.956Z,78.30
2018-12-31T19:54:34.380Z,78.40
2018-12-31T19:57:04.768Z,78.50
2018-12-31T19:59:34.184Z,78.40
2018-12-31T20:02:03.824Z,78.30
2018-12-31T20:04:33.321Z,77.70
2018-12-31T20:07:03.535Z,77.70
2018-12-31T20:09:33.224Z,80.80
2018-12-31T20:12:02.719Z,82.70
2018-12-31T20:14:32.163Z,83.10
2018-12-31T20:17:02.097Z,84.10
2018-12-31T20:19:31.604Z,83.50
2018-12-31T20:22:01.046Z,82.70
2018-12-31T20:24:30.489Z,81.90
2018-12-31T20:26:59.962Z,81.50
2018-12-31T20:29:29.367Z,81.30
2018-12-31T20:31:58.813Z,81.30
2018-12-31T20:34:28.307Z,81.20
2018-12-31T20:36:57.782Z,80.90
2018-12-31T20:39:27.220Z,80.50
2018-12-31T20:41:56.701Z,80.60
2018-12-31T20:44:26.568Z,80.80
2018-12-31T20:46:56.000Z,80.70
2018-12-31T20:49:25.474Z,80.60
2018-12-31T20:51:54.890Z,80.60
2018-12-31T20:54:24.268Z,80.60
2018-12-31T20:56:54.011Z,80.70
2018-12-31T20:59:23.497Z,81.00
2018-12-31T21:01:53.732Z,81.10
2018-12-31T21:04:23.498Z,81.10
2018-12-31T21:06:53.640Z,81.20
2018-12-31T21:09:23.511Z,81.30
2018-12-31T21:11:52.935Z,81.20
2018-12-31T21:14:22.374Z,81.10
2018-12-31T21:16:51.811Z,80.90
2018-12-31T21:19:21.296Z,80.50
2018-12-31T21:21:51.205Z,79.90
2018-12-31T21:24:20.604Z,79.40
2018-12-31T21:26:50.101Z,79.60
2018-12-31T21:29:19.513Z,78.30
2018-12-31T21:31:48.910Z,77.70
2018-12-31T21:34:18.688Z,77.40
2018-12-31T21:36:48.112Z,77.50
2018-12-31T21:39:17.541Z,77.10
2018-12-31T21:41:47.056Z,76.40
2018-12-31T21:44:16.414Z,76.50
2018-12-31T21:46:46.031Z,76.60
2018-12-31T21:49:15.521Z,76.80
2018-12-31T21:51:44.951Z,77.60
2018-12-31T21:54:14.407Z,76.80
2018-12-31T21:56:43.906Z,76.80
2018-12-31T21:59:14.446Z,76.60
2018-12-31T22:01:43.900Z,76.60
2018-12-31T22:04:13.365Z,76.50
2018-12-31T22:06:42.810Z,76.40
2018-12-31T22:09:12.194Z,76.20
2018-12-31T22:11:42.173Z,76.00
2018-12-31T22:14:11.627Z,75.90
2018-12-31T22:16:41.905Z,75.50
2018-12-31T22:19:11.311Z,75.60
2018-12-31T22:21:40.748Z,75.90
2018-12-31T22:24:10.788Z,76.90
2018-12-31T22:26:40.285Z,78.10
2018-12-31T22:29:09.721Z,80.20
2018-12-31T22:31:39.201Z,81.00
2018-12-31T22:34:08.650Z,81.00
2018-12-31T22:36:38.462Z,81.20
2018-12-31T22:39:07.904Z,81.20
2018-12-31T22:41:37.390Z,81.30
2018-12-31T22:44:06.803Z,81.30
2018-12-31T22:46:36.200Z,81.40
2018-12-31T22:49:06.307Z,81.60
2018-12-31T22:51:35.703Z,81.70
2018-12-31T22:54:05.118Z,81.80
2018-12-31T22:56:34.556Z,81.90
2018-12-31T22:59:03.965Z,81.80
2018-12-31T23:01:33.793Z,81.90
2018-12-31T23:04:03.232Z,82.10
2018-12-31T23:06:32.664Z,82.20
2018-12-31T23:09:02.166Z,82.30
2018-12-31T23:11:31.657Z,82.40
2018-12-31T23:14:01.123Z,82.50
2018-12-31T23:16:30.501Z,82.50
2018-12-31T23:18:59.998Z,82.30
2018-12-31T23:21:29.441Z,82.10
2018-12-31T23:23:58.881Z,81.80
2018-12-31T23:26:28.381Z,81.40
2018-12-31T23:28:57.835Z,81.00
2018-12-31T23:31:27.205Z,80.70
2018-12-31T23:33:57.473Z,80.60
2018-12-31T23:36:26.889Z,80.30
2018-12-31T23:38:56.339Z,80.20
2018-12-31T23:41:25.832Z,80.10
2018-12-31T23:43:55.247Z,79.80
2018-12-31T23:46:24.665Z,79.40
2018-12-31T23:48:54.403Z,79.30
2018-12-31T23:51:23.853Z,79.10
2018-12-31T23:53:53.268Z,79.00
2018-12-31T23:56:22.746Z,79.00
2018-12-31T23:58:52.181Z,78.70
